sensor_id;sensor_type;location;lat;lon;timestamp;P1;durP1;ratioP1;P2;durP2;ratioP2
28481;SDS011;15703;49.588;6.260;2024-03-17T00:02:21;7.07;;;5.30;;
28481;SDS011;15703;49.588;6.260;2024-03-17T00:04:42;5.30;;;4.80;;
28481;SDS011;15703;49.588;6.260;2024-03-17T00:07:03;5.67;;;5.17;;
28481;SDS011;15703;49.588;6.260;2024-03-17T00:09:25;5.90;;;5.30;;
28481;SDS011;15703;49.588;6.260;2024-03-17T00:11:46;5.53;;;5.03;;
28481;SDS011;15703;49.588;6.260;2024-03-17T00:14:08;7.13;;;5.30;;
28481;SDS011;15703;49.588;6.260;2024-03-17T00:16:29;5.87;;;4.93;;
28481;SDS011;15703;49.588;6.260;2024-03-17T00:18:50;5.37;;;4.70;;
28481;SDS011;15703;49.588;6.260;2024-03-17T00:21:12;5.47;;;4.97;;
28481;SDS011;15703;49.588;6.260;2024-03-17T00:23:36;5.80;;;5.30;;
28481;SDS011;15703;49.588;6.260;2024-03-17T00:25:58;5.00;;;4.50;;
28481;SDS011;15703;49.588;6.260;2024-03-17T00:28:19;6.83;;;5.27;;
28481;SDS011;15703;49.588;6.260;2024-03-17T00:30:41;5.80;;;5.20;;
28481;SDS011;15703;49.588;6.260;2024-03-17T00:33:02;5.80;;;5.30;;
28481;SDS011;15703;49.588;6.260;2024-03-17T00:35:25;6.67;;;5.67;;
28481;SDS011;15703;49.588;6.260;2024-03-17T00:37:50;4.73;;;4.33;;
28481;SDS011;15703;49.588;6.260;2024-03-17T00:40:11;5.40;;;4.67;;
28481;SDS011;15703;49.588;6.260;2024-03-17T00:42:33;6.17;;;5.57;;
28481;SDS011;15703;49.588;6.260;2024-03-17T00:44:55;5.80;;;5.20;;
28481;SDS011;15703;49.588;6.260;2024-03-17T00:47:16;7.77;;;4.93;;
28481;SDS011;15703;49.588;6.260;2024-03-17T00:49:38;5.67;;;5.00;;
28481;SDS011;15703;49.588;6.260;2024-03-17T00:51:59;6.30;;;5.13;;
28481;SDS011;15703;49.588;6.260;2024-03-17T00:54:20;6.13;;;5.43;;
28481;SDS011;15703;49.588;6.260;2024-03-17T00:56:42;6.23;;;5.57;;
28481;SDS011;15703;49.588;6.260;2024-03-17T00:59:03;5.67;;;5.07;;
28481;SDS011;15703;49.588;6.260;2024-03-17T01:01:25;5.80;;;5.20;;
28481;SDS011;15703;49.588;6.260;2024-03-17T01:03:46;5.93;;;5.43;;
28481;SDS011;15703;49.588;6.260;2024-03-17T01:06:08;6.73;;;5.70;;
28481;SDS011;15703;49.588;6.260;2024-03-17T01:08:30;6.30;;;5.70;;
28481;SDS011;15703;49.588;6.260;2024-03-17T01:10:51;5.80;;;5.30;;
28481;SDS011;15703;49.588;6.260;2024-03-17T01:13:12;5.93;;;5.33;;
28481;SDS011;15703;49.588;6.260;2024-03-17T01:15:34;5.30;;;4.80;;
28481;SDS011;15703;49.588;6.260;2024-03-17T01:17:57;6.13;;;5.53;;
28481;SDS011;15703;49.588;6.260;2024-03-17T01:20:18;5.80;;;5.20;;
28481;SDS011;15703;49.588;6.260;2024-03-17T01:22:39;5.33;;;4.90;;
28481;SDS011;15703;49.588;6.260;2024-03-17T01:25:02;5.60;;;5.10;;
28481;SDS011;15703;49.588;6.260;2024-03-17T01:27:23;7.27;;;5.53;;
28481;SDS011;15703;49.588;6.260;2024-03-17T01:29:45;5.60;;;5.10;;
28481;SDS011;15703;49.588;6.260;2024-03-17T01:32:06;5.23;;;4.67;;
28481;SDS011;15703;49.588;6.260;2024-03-17T01:34:28;6.47;;;5.33;;
28481;SDS011;15703;49.588;6.260;2024-03-17T01:36:49;7.37;;;6.33;;
28481;SDS011;15703;49.588;6.260;2024-03-17T01:39:11;7.37;;;6.20;;
28481;SDS011;15703;49.588;6.260;2024-03-17T01:41:32;6.03;;;5.43;;
28481;SDS011;15703;49.588;6.260;2024-03-17T01:43:54;6.03;;;5.53;;
28481;SDS011;15703;49.588;6.260;2024-03-17T01:46:16;6.20;;;5.70;;
28481;SDS011;15703;49.588;6.260;2024-03-17T01:48:38;6.20;;;5.60;;
28481;SDS011;15703;49.588;6.260;2024-03-17T01:51:00;6.13;;;5.47;;
28481;SDS011;15703;49.588;6.260;2024-03-17T01:53:23;6.30;;;5.80;;
28481;SDS011;15703;49.588;6.260;2024-03-17T01:55:47;5.97;;;5.47;;
28481;SDS011;15703;49.588;6.260;2024-03-17T01:58:09;6.17;;;5.57;;
28481;SDS011;15703;49.588;6.260;2024-03-17T02:00:31;6.53;;;5.93;;
28481;SDS011;15703;49.588;6.260;2024-03-17T02:02:54;6.63;;;5.30;;
28481;SDS011;15703;49.588;6.260;2024-03-17T02:05:16;6.37;;;5.77;;
28481;SDS011;15703;49.588;6.260;2024-03-17T02:07:38;6.67;;;5.97;;
28481;SDS011;15703;49.588;6.260;2024-03-17T02:09:59;5.90;;;5.30;;
28481;SDS011;15703;49.588;6.260;2024-03-17T02:12:21;6.03;;;5.43;;
28481;SDS011;15703;49.588;6.260;2024-03-17T02:14:43;5.63;;;5.13;;
28481;SDS011;15703;49.588;6.260;2024-03-17T02:17:04;6.40;;;5.80;;
28481;SDS011;15703;49.588;6.260;2024-03-17T02:19:25;6.33;;;5.80;;
28481;SDS011;15703;49.588;6.260;2024-03-17T02:21:47;6.87;;;5.87;;
28481;SDS011;15703;49.588;6.260;2024-03-17T02:24:08;6.00;;;5.40;;
28481;SDS011;15703;49.588;6.260;2024-03-17T02:26:30;7.03;;;5.73;;
28481;SDS011;15703;49.588;6.260;2024-03-17T02:28:51;5.77;;;5.03;;
28481;SDS011;15703;49.588;6.260;2024-03-17T02:31:13;7.00;;;5.37;;
28481;SDS011;15703;49.588;6.260;2024-03-17T02:33:36;6.10;;;5.60;;
28481;SDS011;15703;49.588;6.260;2024-03-17T02:35:57;6.00;;;5.40;;
28481;SDS011;15703;49.588;6.260;2024-03-17T02:38:20;6.07;;;5.53;;
28481;SDS011;15703;49.588;6.260;2024-03-17T02:41:01;7.00;;;5.37;;
28481;SDS011;15703;49.588;6.260;2024-03-17T02:43:23;5.83;;;5.33;;
28481;SDS011;15703;49.588;6.260;2024-03-17T02:45:44;5.80;;;5.20;;
28481;SDS011;15703;49.588;6.260;2024-03-17T02:48:05;6.23;;;5.67;;
28481;SDS011;15703;49.588;6.260;2024-03-17T02:50:28;5.87;;;5.37;;
28481;SDS011;15703;49.588;6.260;2024-03-17T02:52:49;5.90;;;5.07;;
28481;SDS011;15703;49.588;6.260;2024-03-17T02:55:10;5.20;;;4.80;;
28481;SDS011;15703;49.588;6.260;2024-03-17T02:57:32;5.57;;;5.07;;
28481;SDS011;15703;49.588;6.260;2024-03-17T02:59:54;5.60;;;5.10;;
28481;SDS011;15703;49.588;6.260;2024-03-17T03:02:15;6.50;;;4.93;;
28481;SDS011;15703;49.588;6.260;2024-03-17T03:04:36;5.23;;;4.80;;
28481;SDS011;15703;49.588;6.260;2024-03-17T03:06:58;5.77;;;5.27;;
28481;SDS011;15703;49.588;6.260;2024-03-17T03:09:19;6.20;;;5.63;;
28481;SDS011;15703;49.588;6.260;2024-03-17T03:11:45;7.50;;;6.03;;
28481;SDS011;15703;49.588;6.260;2024-03-17T03:14:07;5.93;;;5.27;;
28481;SDS011;15703;49.588;6.260;2024-03-17T03:16:29;4.97;;;4.57;;
28481;SDS011;15703;49.588;6.260;2024-03-17T03:18:50;5.97;;;5.30;;
28481;SDS011;15703;49.588;6.260;2024-03-17T03:21:12;6.07;;;5.47;;
28481;SDS011;15703;49.588;6.260;2024-03-17T03:23:33;5.43;;;4.93;;
28481;SDS011;15703;49.588;6.260;2024-03-17T03:25:58;5.33;;;4.80;;
28481;SDS011;15703;49.588;6.260;2024-03-17T03:28:20;5.47;;;4.93;;
28481;SDS011;15703;49.588;6.260;2024-03-17T03:30:41;5.90;;;5.40;;
28481;SDS011;15703;49.588;6.260;2024-03-17T03:33:03;5.23;;;4.67;;
28481;SDS011;15703;49.588;6.260;2024-03-17T03:35:27;5.80;;;5.30;;
28481;SDS011;15703;49.588;6.260;2024-03-17T03:37:49;4.83;;;4.43;;
28481;SDS011;15703;49.588;6.260;2024-03-17T03:40:12;6.67;;;5.20;;
28481;SDS011;15703;49.588;6.260;2024-03-17T03:42:36;5.47;;;4.97;;
28481;SDS011;15703;49.588;6.260;2024-03-17T03:44:58;5.50;;;5.00;;
28481;SDS011;15703;49.588;6.260;2024-03-17T03:47:19;5.47;;;4.97;;
28481;SDS011;15703;49.588;6.260;2024-03-17T03:49:41;5.03;;;4.60;;
28481;SDS011;15703;49.588;6.260;2024-03-17T03:52:03;4.90;;;4.50;;
28481;SDS011;15703;49.588;6.260;2024-03-17T03:54:25;5.67;;;5.20;;
28481;SDS011;15703;49.588;6.260;2024-03-17T03:56:46;5.63;;;5.13;;
28481;SDS011;15703;49.588;6.260;2024-03-17T03:59:08;5.13;;;4.73;;
28481;SDS011;15703;49.588;6.260;2024-03-17T04:01:29;4.53;;;4.23;;
28481;SDS011;15703;49.588;6.260;2024-03-17T04:03:51;5.23;;;4.80;;
28481;SDS011;15703;49.588;6.260;2024-03-17T04:06:12;5.40;;;4.97;;
28481;SDS011;15703;49.588;6.260;2024-03-17T04:08:36;5.90;;;5.30;;
28481;SDS011;15703;49.588;6.260;2024-03-17T04:10:58;5.17;;;4.67;;
28481;SDS011;15703;49.588;6.260;2024-03-17T04:13:21;5.83;;;5.27;;
28481;SDS011;15703;49.588;6.260;2024-03-17T04:15:43;6.03;;;4.93;;
28481;SDS011;15703;49.588;6.260;2024-03-17T04:18:04;5.47;;;4.97;;
28481;SDS011;15703;49.588;6.260;2024-03-17T04:20:26;5.47;;;4.97;;
28481;SDS011;15703;49.588;6.260;2024-03-17T04:22:47;5.50;;;5.03;;
28481;SDS011;15703;49.588;6.260;2024-03-17T04:25:09;4.57;;;4.17;;
28481;SDS011;15703;49.588;6.260;2024-03-17T04:27:30;4.73;;;4.33;;
28481;SDS011;15703;49.588;6.260;2024-03-17T04:29:52;4.93;;;4.40;;
28481;SDS011;15703;49.588;6.260;2024-03-17T04:32:14;6.10;;;5.47;;
28481;SDS011;15703;49.588;6.260;2024-03-17T04:34:35;5.63;;;5.13;;
28481;SDS011;15703;49.588;6.260;2024-03-17T04:36:57;5.27;;;4.80;;
28481;SDS011;15703;49.588;6.260;2024-03-17T04:39:19;4.87;;;4.47;;
28481;SDS011;15703;49.588;6.260;2024-03-17T04:41:40;5.40;;;4.90;;
28481;SDS011;15703;49.588;6.260;2024-03-17T04:44:03;5.10;;;4.70;;
28481;SDS011;15703;49.588;6.260;2024-03-17T04:46:26;5.10;;;4.60;;
28481;SDS011;15703;49.588;6.260;2024-03-17T04:48:48;5.10;;;4.70;;
28481;SDS011;15703;49.588;6.260;2024-03-17T04:51:14;5.83;;;4.83;;
28481;SDS011;15703;49.588;6.260;2024-03-17T04:53:35;4.67;;;4.27;;
28481;SDS011;15703;49.588;6.260;2024-03-17T04:56:04;6.00;;;4.90;;
28481;SDS011;15703;49.588;6.260;2024-03-17T04:58:25;5.60;;;5.20;;
28481;SDS011;15703;49.588;6.260;2024-03-17T05:00:47;5.23;;;4.83;;
28481;SDS011;15703;49.588;6.260;2024-03-17T05:03:08;4.87;;;4.47;;
28481;SDS011;15703;49.588;6.260;2024-03-17T05:05:30;5.83;;;4.73;;
28481;SDS011;15703;49.588;6.260;2024-03-17T05:07:51;5.17;;;4.77;;
28481;SDS011;15703;49.588;6.260;2024-03-17T05:10:12;5.30;;;4.80;;
28481;SDS011;15703;49.588;6.260;2024-03-17T05:12:34;6.07;;;5.07;;
28481;SDS011;15703;49.588;6.260;2024-03-17T05:14:55;5.57;;;4.83;;
28481;SDS011;15703;49.588;6.260;2024-03-17T05:17:17;4.90;;;4.50;;
28481;SDS011;15703;49.588;6.260;2024-03-17T05:19:38;4.50;;;4.10;;
28481;SDS011;15703;49.588;6.260;2024-03-17T05:21:59;5.50;;;5.00;;
28481;SDS011;15703;49.588;6.260;2024-03-17T05:24:21;5.33;;;4.83;;
28481;SDS011;15703;49.588;6.260;2024-03-17T05:26:42;4.97;;;4.57;;
28481;SDS011;15703;49.588;6.260;2024-03-17T05:29:04;5.20;;;4.80;;
28481;SDS011;15703;49.588;6.260;2024-03-17T05:31:25;5.13;;;4.63;;
28481;SDS011;15703;49.588;6.260;2024-03-17T05:33:48;5.20;;;4.80;;
28481;SDS011;15703;49.588;6.260;2024-03-17T05:36:10;5.03;;;4.63;;
28481;SDS011;15703;49.588;6.260;2024-03-17T05:38:32;4.83;;;4.43;;
28481;SDS011;15703;49.588;6.260;2024-03-17T05:40:57;4.80;;;4.50;;
28481;SDS011;15703;49.588;6.260;2024-03-17T05:43:22;5.10;;;4.67;;
28481;SDS011;15703;49.588;6.260;2024-03-17T05:45:44;4.53;;;4.13;;
28481;SDS011;15703;49.588;6.260;2024-03-17T05:48:05;4.70;;;4.03;;
28481;SDS011;15703;49.588;6.260;2024-03-17T05:50:27;5.50;;;5.00;;
28481;SDS011;15703;49.588;6.260;2024-03-17T05:52:48;4.60;;;4.23;;
28481;SDS011;15703;49.588;6.260;2024-03-17T05:55:11;4.97;;;4.57;;
28481;SDS011;15703;49.588;6.260;2024-03-17T05:57:32;5.13;;;4.73;;
28481;SDS011;15703;49.588;6.260;2024-03-17T05:59:54;5.17;;;4.60;;
28481;SDS011;15703;49.588;6.260;2024-03-17T06:02:16;4.87;;;4.47;;
28481;SDS011;15703;49.588;6.260;2024-03-17T06:04:39;4.67;;;4.27;;
28481;SDS011;15703;49.588;6.260;2024-03-17T06:07:02;4.70;;;4.20;;
28481;SDS011;15703;49.588;6.260;2024-03-17T06:09:24;5.53;;;5.03;;
28481;SDS011;15703;49.588;6.260;2024-03-17T06:11:46;5.57;;;4.90;;
28481;SDS011;15703;49.588;6.260;2024-03-17T06:14:07;5.77;;;5.20;;
28481;SDS011;15703;49.588;6.260;2024-03-17T06:16:32;5.77;;;5.03;;
28481;SDS011;15703;49.588;6.260;2024-03-17T06:18:53;6.40;;;5.03;;
28481;SDS011;15703;49.588;6.260;2024-03-17T06:21:15;4.80;;;4.30;;
28481;SDS011;15703;49.588;6.260;2024-03-17T06:23:36;5.97;;;5.00;;
28481;SDS011;15703;49.588;6.260;2024-03-17T06:25:58;4.93;;;4.53;;
28481;SDS011;15703;49.588;6.260;2024-03-17T06:28:19;5.47;;;4.83;;
28481;SDS011;15703;49.588;6.260;2024-03-17T06:30:41;5.77;;;4.87;;
28481;SDS011;15703;49.588;6.260;2024-03-17T06:33:03;5.80;;;4.87;;
28481;SDS011;15703;49.588;6.260;2024-03-17T06:35:25;5.30;;;4.63;;
28481;SDS011;15703;49.588;6.260;2024-03-17T06:37:47;5.77;;;5.10;;
28481;SDS011;15703;49.588;6.260;2024-03-17T06:40:09;6.07;;;5.47;;
28481;SDS011;15703;49.588;6.260;2024-03-17T06:42:33;7.33;;;5.97;;
28481;SDS011;15703;49.588;6.260;2024-03-17T06:44:55;6.33;;;5.73;;
28481;SDS011;15703;49.588;6.260;2024-03-17T06:47:16;5.97;;;5.47;;
28481;SDS011;15703;49.588;6.260;2024-03-17T06:49:38;6.57;;;5.80;;
28481;SDS011;15703;49.588;6.260;2024-03-17T06:51:59;6.60;;;5.47;;
28481;SDS011;15703;49.588;6.260;2024-03-17T06:54:21;6.47;;;5.77;;
28481;SDS011;15703;49.588;6.260;2024-03-17T06:56:44;6.23;;;5.67;;
28481;SDS011;15703;49.588;6.260;2024-03-17T06:59:06;9.67;;;5.77;;
28481;SDS011;15703;49.588;6.260;2024-03-17T07:01:27;7.33;;;6.37;;
28481;SDS011;15703;49.588;6.260;2024-03-17T07:03:48;6.30;;;5.70;;
28481;SDS011;15703;49.588;6.260;2024-03-17T07:06:10;5.77;;;5.17;;
28481;SDS011;15703;49.588;6.260;2024-03-17T07:08:31;6.17;;;5.53;;
28481;SDS011;15703;49.588;6.260;2024-03-17T07:11:00;5.73;;;5.17;;
28481;SDS011;15703;49.588;6.260;2024-03-17T07:13:23;6.00;;;4.97;;
28481;SDS011;15703;49.588;6.260;2024-03-17T07:15:48;6.73;;;6.03;;
28481;SDS011;15703;49.588;6.260;2024-03-17T07:18:09;6.13;;;5.53;;
28481;SDS011;15703;49.588;6.260;2024-03-17T07:20:32;6.43;;;5.83;;
28481;SDS011;15703;49.588;6.260;2024-03-17T07:22:54;6.33;;;5.83;;
28481;SDS011;15703;49.588;6.260;2024-03-17T07:25:15;6.17;;;5.57;;
28481;SDS011;15703;49.588;6.260;2024-03-17T07:27:37;5.77;;;5.27;;
28481;SDS011;15703;49.588;6.260;2024-03-17T07:29:59;6.33;;;5.73;;
28481;SDS011;15703;49.588;6.260;2024-03-17T07:32:20;6.30;;;5.70;;
28481;SDS011;15703;49.588;6.260;2024-03-17T07:34:43;7.50;;;6.33;;
28481;SDS011;15703;49.588;6.260;2024-03-17T07:37:04;7.43;;;5.93;;
28481;SDS011;15703;49.588;6.260;2024-03-17T07:39:29;6.87;;;6.17;;
28481;SDS011;15703;49.588;6.260;2024-03-17T07:41:54;8.07;;;6.60;;
28481;SDS011;15703;49.588;6.260;2024-03-17T07:44:15;8.57;;;6.40;;
28481;SDS011;15703;49.588;6.260;2024-03-17T07:46:37;6.57;;;5.87;;
28481;SDS011;15703;49.588;6.260;2024-03-17T07:48:58;7.00;;;5.80;;
28481;SDS011;15703;49.588;6.260;2024-03-17T07:51:20;5.47;;;4.97;;
28481;SDS011;15703;49.588;6.260;2024-03-17T07:53:42;6.30;;;5.33;;
28481;SDS011;15703;49.588;6.260;2024-03-17T07:56:06;5.93;;;5.37;;
28481;SDS011;15703;49.588;6.260;2024-03-17T07:58:30;5.47;;;4.97;;
28481;SDS011;15703;49.588;6.260;2024-03-17T08:01:05;6.23;;;5.63;;
28481;SDS011;15703;49.588;6.260;2024-03-17T08:03:27;7.50;;;5.23;;
28481;SDS011;15703;49.588;6.260;2024-03-17T08:05:49;6.43;;;5.83;;
28481;SDS011;15703;49.588;6.260;2024-03-17T08:08:11;6.00;;;5.47;;
28481;SDS011;15703;49.588;6.260;2024-03-17T08:10:32;5.47;;;4.97;;
28481;SDS011;15703;49.588;6.260;2024-03-17T08:12:53;5.97;;;5.47;;
28481;SDS011;15703;49.588;6.260;2024-03-17T08:15:16;6.13;;;5.53;;
28481;SDS011;15703;49.588;6.260;2024-03-17T08:17:40;6.03;;;5.43;;
28481;SDS011;15703;49.588;6.260;2024-03-17T08:20:01;6.50;;;5.33;;
28481;SDS011;15703;49.588;6.260;2024-03-17T08:22:23;5.53;;;5.03;;
28481;SDS011;15703;49.588;6.260;2024-03-17T08:24:45;5.53;;;5.03;;
28481;SDS011;15703;49.588;6.260;2024-03-17T08:27:07;5.63;;;5.13;;
28481;SDS011;15703;49.588;6.260;2024-03-17T08:29:28;5.87;;;4.97;;
28481;SDS011;15703;49.588;6.260;2024-03-17T08:31:50;6.50;;;5.90;;
28481;SDS011;15703;49.588;6.260;2024-03-17T08:34:11;5.53;;;4.97;;
28481;SDS011;15703;49.588;6.260;2024-03-17T08:36:32;5.10;;;4.47;;
28481;SDS011;15703;49.588;6.260;2024-03-17T08:38:54;7.57;;;5.97;;
28481;SDS011;15703;49.588;6.260;2024-03-17T08:41:15;6.13;;;5.53;;
28481;SDS011;15703;49.588;6.260;2024-03-17T08:43:37;8.10;;;7.30;;
28481;SDS011;15703;49.588;6.260;2024-03-17T08:46:05;9.90;;;8.27;;
28481;SDS011;15703;49.588;6.260;2024-03-17T08:48:27;10.50;;;7.30;;
28481;SDS011;15703;49.588;6.260;2024-03-17T08:50:50;8.60;;;7.27;;
28481;SDS011;15703;49.588;6.260;2024-03-17T08:53:11;8.00;;;7.20;;
28481;SDS011;15703;49.588;6.260;2024-03-17T08:55:34;8.30;;;7.40;;
28481;SDS011;15703;49.588;6.260;2024-03-17T08:57:55;10.37;;;7.47;;
28481;SDS011;15703;49.588;6.260;2024-03-17T09:00:17;7.40;;;5.90;;
28481;SDS011;15703;49.588;6.260;2024-03-17T09:02:38;12.47;;;7.20;;
28481;SDS011;15703;49.588;6.260;2024-03-17T09:05:01;13.13;;;8.27;;
28481;SDS011;15703;49.588;6.260;2024-03-17T09:07:24;8.83;;;6.87;;
28481;SDS011;15703;49.588;6.260;2024-03-17T09:09:49;11.13;;;8.63;;
28481;SDS011;15703;49.588;6.260;2024-03-17T09:12:10;11.63;;;8.45;;
28481;SDS011;15703;49.588;6.260;2024-03-17T09:14:32;9.50;;;7.90;;
28481;SDS011;15703;49.588;6.260;2024-03-17T09:16:53;10.40;;;8.33;;
28481;SDS011;15703;49.588;6.260;2024-03-17T09:19:16;13.60;;;9.13;;
28481;SDS011;15703;49.588;6.260;2024-03-17T09:21:37;12.15;;;9.00;;
28481;SDS011;15703;49.588;6.260;2024-03-17T09:24:00;12.75;;;9.02;;
28481;SDS011;15703;49.588;6.260;2024-03-17T09:26:23;14.13;;;10.15;;
28481;SDS011;15703;49.588;6.260;2024-03-17T09:28:44;13.10;;;9.15;;
28481;SDS011;15703;49.588;6.260;2024-03-17T09:31:06;14.65;;;8.82;;
28481;SDS011;15703;49.588;6.260;2024-03-17T09:33:28;12.77;;;9.07;;
28481;SDS011;15703;49.588;6.260;2024-03-17T09:36:02;13.20;;;9.95;;
28481;SDS011;15703;49.588;6.260;2024-03-17T09:38:29;15.50;;;10.00;;
28481;SDS011;15703;49.588;6.260;2024-03-17T09:40:51;13.43;;;8.85;;
28481;SDS011;15703;49.588;6.260;2024-03-17T09:43:20;12.30;;;8.90;;
28481;SDS011;15703;49.588;6.260;2024-03-17T09:45:42;11.90;;;8.70;;
28481;SDS011;15703;49.588;6.260;2024-03-17T09:48:04;11.07;;;8.65;;
28481;SDS011;15703;49.588;6.260;2024-03-17T09:50:25;13.52;;;9.65;;
28481;SDS011;15703;49.588;6.260;2024-03-17T09:52:47;11.23;;;8.82;;
28481;SDS011;15703;49.588;6.260;2024-03-17T09:55:09;13.48;;;9.57;;
28481;SDS011;15703;49.588;6.260;2024-03-17T09:57:31;11.25;;;8.57;;
28481;SDS011;15703;49.588;6.260;2024-03-17T09:59:53;12.88;;;8.40;;
28481;SDS011;15703;49.588;6.260;2024-03-17T10:02:16;9.43;;;7.63;;
28481;SDS011;15703;49.588;6.260;2024-03-17T10:04:39;11.57;;;8.25;;
28481;SDS011;15703;49.588;6.260;2024-03-17T10:07:01;12.55;;;9.10;;
28481;SDS011;15703;49.588;6.260;2024-03-17T10:09:22;10.30;;;7.85;;
28481;SDS011;15703;49.588;6.260;2024-03-17T10:11:44;11.15;;;8.77;;
28481;SDS011;15703;49.588;6.260;2024-03-17T10:14:06;11.13;;;9.20;;
28481;SDS011;15703;49.588;6.260;2024-03-17T10:16:28;13.32;;;9.40;;
28481;SDS011;15703;49.588;6.260;2024-03-17T10:18:51;16.67;;;9.10;;
28481;SDS011;15703;49.588;6.260;2024-03-17T10:21:24;11.68;;;8.55;;
28481;SDS011;15703;49.588;6.260;2024-03-17T10:23:45;12.63;;;9.15;;
28481;SDS011;15703;49.588;6.260;2024-03-17T10:26:13;9.35;;;7.28;;
28481;SDS011;15703;49.588;6.260;2024-03-17T10:28:35;13.70;;;8.85;;
28481;SDS011;15703;49.588;6.260;2024-03-17T10:30:57;11.52;;;8.85;;
28481;SDS011;15703;49.588;6.260;2024-03-17T10:33:23;11.20;;;7.93;;
28481;SDS011;15703;49.588;6.260;2024-03-17T10:35:47;12.18;;;9.57;;
28481;SDS011;15703;49.588;6.260;2024-03-17T10:38:09;13.13;;;9.27;;
28481;SDS011;15703;49.588;6.260;2024-03-17T10:40:33;11.25;;;8.88;;
28481;SDS011;15703;49.588;6.260;2024-03-17T10:42:59;11.45;;;8.13;;
28481;SDS011;15703;49.588;6.260;2024-03-17T10:45:21;12.40;;;8.30;;
28481;SDS011;15703;49.588;6.260;2024-03-17T10:47:47;13.52;;;8.50;;
28481;SDS011;15703;49.588;6.260;2024-03-17T10:50:12;12.02;;;8.02;;
28481;SDS011;15703;49.588;6.260;2024-03-17T10:52:37;10.88;;;8.18;;
28481;SDS011;15703;49.588;6.260;2024-03-17T10:55:02;11.73;;;7.88;;
28481;SDS011;15703;49.588;6.260;2024-03-17T10:59:50;11.55;;;8.18;;
28481;SDS011;15703;49.588;6.260;2024-03-17T11:02:20;11.13;;;8.10;;
28481;SDS011;15703;49.588;6.260;2024-03-17T11:04:44;8.52;;;7.43;;
28481;SDS011;15703;49.588;6.260;2024-03-17T11:07:08;13.98;;;8.77;;
28481;SDS011;15703;49.588;6.260;2024-03-17T11:09:37;14.32;;;9.75;;
28481;SDS011;15703;49.588;6.260;2024-03-17T11:11:58;13.55;;;8.45;;
28481;SDS011;15703;49.588;6.260;2024-03-17T11:14:21;11.52;;;8.20;;
28481;SDS011;15703;49.588;6.260;2024-03-17T11:16:45;11.45;;;8.18;;
28481;SDS011;15703;49.588;6.260;2024-03-17T11:19:07;10.70;;;7.55;;
28481;SDS011;15703;49.588;6.260;2024-03-17T11:21:29;9.65;;;6.97;;
28481;SDS011;15703;49.588;6.260;2024-03-17T11:23:56;9.10;;;7.15;;
28481;SDS011;15703;49.588;6.260;2024-03-17T11:26:25;11.38;;;8.05;;
28481;SDS011;15703;49.588;6.260;2024-03-17T11:28:48;10.30;;;7.47;;
28481;SDS011;15703;49.588;6.260;2024-03-17T11:33:50;11.07;;;7.38;;
28481;SDS011;15703;49.588;6.260;2024-03-17T11:41:48;10.35;;;7.10;;
28481;SDS011;15703;49.588;6.260;2024-03-17T11:46:42;10.38;;;7.43;;
28481;SDS011;15703;49.588;6.260;2024-03-17T11:49:03;11.38;;;7.10;;
28481;SDS011;15703;49.588;6.260;2024-03-17T11:51:25;10.35;;;7.30;;
28481;SDS011;15703;49.588;6.260;2024-03-17T11:53:57;12.57;;;8.13;;
28481;SDS011;15703;49.588;6.260;2024-03-17T11:56:23;9.63;;;8.20;;
28481;SDS011;15703;49.588;6.260;2024-03-17T11:58:44;8.98;;;6.88;;
28481;SDS011;15703;49.588;6.260;2024-03-17T12:01:06;8.82;;;5.93;;
28481;SDS011;15703;49.588;6.260;2024-03-17T12:03:27;11.07;;;7.53;;
28481;SDS011;15703;49.588;6.260;2024-03-17T12:05:49;12.23;;;8.18;;
28481;SDS011;15703;49.588;6.260;2024-03-17T12:08:20;10.45;;;7.60;;
28481;SDS011;15703;49.588;6.260;2024-03-17T12:10:47;10.55;;;7.78;;
28481;SDS011;15703;49.588;6.260;2024-03-17T12:13:11;10.88;;;7.43;;
28481;SDS011;15703;49.588;6.260;2024-03-17T12:15:33;14.70;;;8.57;;
28481;SDS011;15703;49.588;6.260;2024-03-17T12:17:55;12.13;;;8.65;;
28481;SDS011;15703;49.588;6.260;2024-03-17T12:20:19;10.48;;;7.32;;
28481;SDS011;15703;49.588;6.260;2024-03-17T12:22:41;10.82;;;8.63;;
28481;SDS011;15703;49.588;6.260;2024-03-17T12:25:02;11.07;;;7.53;;
28481;SDS011;15703;49.588;6.260;2024-03-17T12:27:35;11.43;;;7.82;;
28481;SDS011;15703;49.588;6.260;2024-03-17T12:29:57;13.00;;;9.07;;
28481;SDS011;15703;49.588;6.260;2024-03-17T12:32:21;14.82;;;9.45;;
28481;SDS011;15703;49.588;6.260;2024-03-17T12:34:43;14.98;;;9.48;;
28481;SDS011;15703;49.588;6.260;2024-03-17T12:37:05;12.35;;;9.25;;
28481;SDS011;15703;49.588;6.260;2024-03-17T12:39:27;12.88;;;8.05;;
28481;SDS011;15703;49.588;6.260;2024-03-17T12:42:05;13.40;;;8.05;;
28481;SDS011;15703;49.588;6.260;2024-03-17T12:44:27;11.18;;;7.60;;
28481;SDS011;15703;49.588;6.260;2024-03-17T12:47:00;8.63;;;6.93;;
28481;SDS011;15703;49.588;6.260;2024-03-17T12:49:22;8.38;;;6.35;;
28481;SDS011;15703;49.588;6.260;2024-03-17T12:51:45;7.40;;;5.68;;
28481;SDS011;15703;49.588;6.260;2024-03-17T12:54:16;7.35;;;5.80;;
28481;SDS011;15703;49.588;6.260;2024-03-17T12:56:40;8.73;;;6.07;;
28481;SDS011;15703;49.588;6.260;2024-03-17T12:59:20;8.75;;;5.72;;
28481;SDS011;15703;49.588;6.260;2024-03-17T13:02:03;6.57;;;5.30;;
28481;SDS011;15703;49.588;6.260;2024-03-17T13:04:29;5.95;;;4.45;;
28481;SDS011;15703;49.588;6.260;2024-03-17T13:06:51;6.25;;;5.07;;
28481;SDS011;15703;49.588;6.260;2024-03-17T13:09:15;6.10;;;4.68;;
28481;SDS011;15703;49.588;6.260;2024-03-17T13:11:36;5.57;;;4.22;;
28481;SDS011;15703;49.588;6.260;2024-03-17T13:13:58;4.70;;;4.07;;
28481;SDS011;15703;49.588;6.260;2024-03-17T13:16:19;5.18;;;3.83;;
28481;SDS011;15703;49.588;6.260;2024-03-17T13:18:40;3.95;;;3.47;;
28481;SDS011;15703;49.588;6.260;2024-03-17T13:21:02;4.30;;;2.95;;
28481;SDS011;15703;49.588;6.260;2024-03-17T13:23:24;3.47;;;2.30;;
28481;SDS011;15703;49.588;6.260;2024-03-17T13:25:45;2.50;;;2.10;;
28481;SDS011;15703;49.588;6.260;2024-03-17T13:28:08;3.40;;;2.47;;
28481;SDS011;15703;49.588;6.260;2024-03-17T13:30:30;2.58;;;2.28;;
28481;SDS011;15703;49.588;6.260;2024-03-17T13:32:54;3.85;;;2.30;;
28481;SDS011;15703;49.588;6.260;2024-03-17T13:35:19;2.55;;;2.08;;
28481;SDS011;15703;49.588;6.260;2024-03-17T13:37:40;2.80;;;2.58;;
28481;SDS011;15703;49.588;6.260;2024-03-17T13:40:02;2.05;;;1.83;;
28481;SDS011;15703;49.588;6.260;2024-03-17T13:42:25;2.45;;;2.00;;
28481;SDS011;15703;49.588;6.260;2024-03-17T13:44:48;2.58;;;2.17;;
28481;SDS011;15703;49.588;6.260;2024-03-17T13:47:10;2.60;;;2.30;;
28481;SDS011;15703;49.588;6.260;2024-03-17T13:49:32;3.30;;;2.03;;
28481;SDS011;15703;49.588;6.260;2024-03-17T13:51:54;4.03;;;2.20;;
28481;SDS011;15703;49.588;6.260;2024-03-17T13:54:15;5.13;;;2.65;;
28481;SDS011;15703;49.588;6.260;2024-03-17T13:56:37;2.03;;;1.75;;
28481;SDS011;15703;49.588;6.260;2024-03-17T13:58:59;2.83;;;1.90;;
28481;SDS011;15703;49.588;6.260;2024-03-17T14:01:20;2.50;;;2.22;;
28481;SDS011;15703;49.588;6.260;2024-03-17T14:03:41;2.28;;;2.03;;
28481;SDS011;15703;49.588;6.260;2024-03-17T14:06:05;1.92;;;1.77;;
28481;SDS011;15703;49.588;6.260;2024-03-17T14:08:31;1.70;;;1.60;;
28481;SDS011;15703;49.588;6.260;2024-03-17T14:10:52;2.60;;;2.40;;
28481;SDS011;15703;49.588;6.260;2024-03-17T14:13:14;3.03;;;2.20;;
28481;SDS011;15703;49.588;6.260;2024-03-17T14:15:35;3.53;;;2.58;;
28481;SDS011;15703;49.588;6.260;2024-03-17T14:17:57;3.20;;;2.15;;
28481;SDS011;15703;49.588;6.260;2024-03-17T14:20:18;4.72;;;2.20;;
28481;SDS011;15703;49.588;6.260;2024-03-17T14:22:41;3.00;;;2.38;;
28481;SDS011;15703;49.588;6.260;2024-03-17T14:25:06;3.72;;;2.10;;
28481;SDS011;15703;49.588;6.260;2024-03-17T14:27:28;2.75;;;2.00;;
28481;SDS011;15703;49.588;6.260;2024-03-17T14:29:50;1.73;;;1.60;;
28481;SDS011;15703;49.588;6.260;2024-03-17T14:32:11;2.00;;;1.50;;